Time;durP1;ratioP1;P1;durP2;ratioP2;P2;SDS_P1;SDS_P2;PMS_P1;PMS_P2;Temp;Humidity;BMP_temperature;BMP_pressure;BME280_temperature;BME280_humidity;BME280_pressure;Samples;Min_cycle;Max_cycle;Signal;HPM_P1;HPM_P2
2023/09/16 00:00:16;;;;;;;2.17;2.03;;;;;;;;;;1036465;28;20056;-75
2023/09/16 00:00:47;;;;;;;2.72;2.15;;;;;;;;;;1036891;28;20113;-74
2023/09/16 00:01:17;;;;;;;3.75;2.33;;;;;;;;;;1037090;28;20044;-74
2023/09/16 00:01:48;;;;;;;6.35;1.75;;;;;;;;;;1029651;28;20118;-74
2023/09/16 00:02:20;;;;;;;0.30;0.30;;;;;;;;;;1027005;28;20117;-74
2023/09/16 00:02:51;;;;;;;2.13;1.00;;;;;;;;;;1033337;28;20134;-74
2023/09/16 00:03:21;;;;;;;4.30;0.93;;;;;;;;;;1030287;28;20142;-74
2023/09/16 00:03:52;;;;;;;4.30;2.05;;;;;;;;;;1037884;28;20475;-74
2023/09/16 00:04:25;;;;;;;1.75;1.35;;;;;;;;;;1037856;28;20067;-74
2023/09/16 00:04:55;;;;;;;0.10;0.10;;;;;;;;;;1037869;28;20021;-75
2023/09/16 00:05:26;;;;;;;3.05;2.60;;;;;;;;;;1037799;28;20029;-75
2023/09/16 00:05:57;;;;;;;1.70;1.45;;;;;;;;;;1037327;28;20029;-74
2023/09/16 00:06:27;;;;;;;1.67;1.58;;;;;;;;;;1037560;28;20033;-75
2023/09/16 00:06:59;;;;;;;1.45;1.27;;;;;;;;;;1037679;28;20485;-74
2023/09/16 00:07:29;;;;;;;2.13;1.92;;;;;;;;;;1039080;28;20474;-74
2023/09/16 00:08:00;;;;;;;1.13;1.05;;;;;;;;;;1039849;28;20006;-74
2023/09/16 00:08:32;;;;;;;1.65;1.55;;;;;;;;;;1038788;28;20088;-75
2023/09/16 00:09:02;;;;;;;3.60;1.60;;;;;;;;;;1033678;28;20017;-75
2023/09/16 00:09:33;;;;;;;2.70;1.90;;;;;;;;;;1033899;28;20034;-75
2023/09/16 00:10:04;;;;;;;1.25;0.68;;;;;;;;;;1033371;28;20060;-75
2023/09/16 00:10:34;;;;;;;3.92;1.52;;;;;;;;;;1033652;28;20025;-75
2023/09/16 00:11:09;;;;;;;6.28;2.13;;;;;;;;;;1035240;28;20498;-74
2023/09/16 00:11:39;;;;;;;0.70;0.70;;;;;;;;;;1036232;28;20026;-74
2023/09/16 00:12:10;;;;;;;1.25;1.00;;;;;;;;;;1039195;28;20122;-74
2023/09/16 00:12:40;;;;;;;1.40;1.30;;;;;;;;;;1039564;28;20060;-75
2023/09/16 00:13:10;;;;;;;0.85;0.80;;;;;;;;;;1037416;28;20014;-74
2023/09/16 00:13:43;;;;;;;6.50;3.45;;;;;;;;;;1038186;28;20029;-75
2023/09/16 00:14:13;;;;;;;0.47;0.47;;;;;;;;;;1037939;28;20025;-74
2023/09/16 00:14:44;;;;;;;5.97;0.65;;;;;;;;;;1037452;28;20154;-74
2023/09/16 00:15:15;;;;;;;1.20;1.10;;;;;;;;;;1037015;28;20486;-75
2023/09/16 00:15:48;;;;;;;2.63;1.55;;;;;;;;;;1036754;28;20017;-75
2023/09/16 00:16:18;;;;;;;6.90;1.80;;;;;;;;;;1033160;28;20026;-74
2023/09/16 00:16:50;;;;;;;1.95;1.85;;;;;;;;;;1033733;28;20026;-75
2023/09/16 00:17:21;;;;;;;2.70;2.50;;;;;;;;;;1034213;28;20030;-75
2023/09/16 00:17:52;;;;;;;0.98;0.88;;;;;;;;;;1037839;28;20481;-74
2023/09/16 00:18:22;;;;;;;0.57;0.32;;;;;;;;;;1037538;28;20105;-75
2023/09/16 00:18:53;;;;;;;3.00;0.65;;;;;;;;;;1041497;28;20076;-75
2023/09/16 00:19:23;;;;;;;0.17;0.17;;;;;;;;;;1040549;28;20022;-75
2023/09/16 00:19:54;;;;;;;1.73;1.58;;;;;;;;;;1041780;28;20039;-75
2023/09/16 00:20:27;;;;;;;2.38;1.38;;;;;;;;;;1041206;28;20464;-74
2023/09/16 00:20:57;;;;;;;6.28;2.50;;;;;;;;;;1038235;28;20042;-74
2023/09/16 00:21:28;;;;;;;0.57;0.50;;;;;;;;;;1039831;28;20477;-74
2023/09/16 00:21:58;;;;;;;2.45;1.58;;;;;;;;;;1037569;28;20025;-74
2023/09/16 00:22:30;;;;;;;4.80;1.38;;;;;;;;;;1036943;28;20025;-75
2023/09/16 00:23:00;;;;;;;0.95;0.85;;;;;;;;;;1036471;28;20024;-74
2023/09/16 00:23:31;;;;;;;11.95;2.97;;;;;;;;;;1038681;28;20076;-74
2023/09/16 00:24:01;;;;;;;0.63;0.63;;;;;;;;;;1039739;28;20025;-74
2023/09/16 00:24:32;;;;;;;1.05;0.95;;;;;;;;;;1041699;28;20033;-74
2023/09/16 00:25:04;;;;;;;0.98;0.98;;;;;;;;;;1038294;28;20053;-75
2023/09/16 00:25:35;;;;;;;1.23;1.13;;;;;;;;;;1039684;28;20099;-74
2023/09/16 00:26:05;;;;;;;0.22;0.22;;;;;;;;;;1039488;28;20057;-74
2023/09/16 00:26:36;;;;;;;3.17;2.85;;;;;;;;;;1039507;28;20037;-74
2023/09/16 00:27:09;;;;;;;35.22;3.63;;;;;;;;;;1037795;28;20026;-74
2023/09/16 00:27:39;;;;;;;1.17;0.63;;;;;;;;;;1037083;28;20389;-74
2023/09/16 00:28:10;;;;;;;2.92;1.08;;;;;;;;;;1040575;28;20026;-74
2023/09/16 00:28:40;;;;;;;1.88;1.75;;;;;;;;;;1041936;28;20503;-74
2023/09/16 00:29:11;;;;;;;3.00;2.53;;;;;;;;;;1041528;28;20028;-75
2023/09/16 00:29:41;;;;;;;2.70;1.60;;;;;;;;;;1042194;28;20108;-74
2023/09/16 00:30:12;;;;;;;1.95;1.85;;;;;;;;;;1036302;28;20120;-74
2023/09/16 00:30:45;;;;;;;0.45;0.45;;;;;;;;;;1037493;28;20026;-75
2023/09/16 00:31:15;;;;;;;0.70;0.68;;;;;;;;;;1037572;28;20107;-74
2023/09/16 00:31:45;;;;;;;0.90;0.85;;;;;;;;;;1037185;28;20535;-75
2023/09/16 00:32:16;;;;;;;3.30;1.65;;;;;;;;;;1037115;28;20121;-75
2023/09/16 00:32:46;;;;;;;1.33;1.23;;;;;;;;;;1033361;28;20714;-74
2023/09/16 00:33:17;;;;;;;0.30;0.30;;;;;;;;;;1033545;28;20049;-74
2023/09/16 00:33:49;;;;;;;3.70;1.73;;;;;;;;;;1037775;28;20381;-75
2023/09/16 00:34:19;;;;;;;2.13;1.95;;;;;;;;;;1037899;28;20052;-75
2023/09/16 00:34:51;;;;;;;1.38;1.27;;;;;;;;;;1041140;28;20055;-75
2023/09/16 00:35:21;;;;;;;2.35;1.77;;;;;;;;;;1035432;28;20103;-75
2023/09/16 00:35:51;;;;;;;2.17;1.33;;;;;;;;;;1035704;28;20104;-75
2023/09/16 00:36:22;;;;;;;2.13;1.63;;;;;;;;;;1039276;28;20041;-74
2023/09/16 00:36:53;;;;;;;0.40;0.40;;;;;;;;;;1039188;28;20020;-75
2023/09/16 00:37:24;;;;;;;2.55;1.88;;;;;;;;;;1036723;28;20061;-74
2023/09/16 00:37:54;;;;;;;1.38;0.52;;;;;;;;;;1037603;28;20028;-74
2023/09/16 00:38:25;;;;;;;0.50;0.50;;;;;;;;;;1041776;28;20028;-75
2023/09/16 00:38:55;;;;;;;1.48;1.38;;;;;;;;;;1041827;28;20115;-74
2023/09/16 00:39:26;;;;;;;0.32;0.32;;;;;;;;;;1041459;28;20029;-74
2023/09/16 00:39:56;;;;;;;0.65;0.38;;;;;;;;;;1040981;28;20018;-75
2023/09/16 00:40:27;;;;;;;1.23;1.13;;;;;;;;;;1039804;28;20052;-74
2023/09/16 00:40:57;;;;;;;3.63;0.68;;;;;;;;;;1041616;28;20010;-75
2023/09/16 00:41:27;;;;;;;1.00;0.90;;;;;;;;;;1041210;28;20029;-74
2023/09/16 00:41:58;;;;;;;6.97;2.30;;;;;;;;;;1039753;28;20021;-75
2023/09/16 00:42:28;;;;;;;0.55;0.55;;;;;;;;;;1038487;28;20014;-75
2023/09/16 00:42:59;;;;;;;1.10;1.00;;;;;;;;;;1037252;28;20018;-75
2023/09/16 00:43:29;;;;;;;5.10;0.93;;;;;;;;;;1037572;28;20009;-75
2023/09/16 00:44:00;;;;;;;1.50;1.40;;;;;;;;;;1037202;28;20116;-74
2023/09/16 00:44:30;;;;;;;5.07;0.98;;;;;;;;;;1037129;28;20028;-75
2023/09/16 00:45:01;;;;;;;1.38;0.73;;;;;;;;;;1035249;28;20029;-75
2023/09/16 00:45:33;;;;;;;4.60;4.20;;;;;;;;;;1036761;28;20013;-75
2023/09/16 00:46:03;;;;;;;10.50;1.48;;;;;;;;;;1040767;28;20023;-74
2023/09/16 00:46:33;;;;;;;4.50;2.25;;;;;;;;;;1041625;28;20412;-75
2023/09/16 00:47:04;;;;;;;3.72;1.95;;;;;;;;;;1041769;28;20147;-75
2023/09/16 00:47:35;;;;;;;9.73;2.35;;;;;;;;;;1037081;28;20022;-74
2023/09/16 00:48:05;;;;;;;1.35;1.05;;;;;;;;;;1036870;28;20545;-75
2023/09/16 00:48:36;;;;;;;1.50;1.38;;;;;;;;;;1037438;28;20433;-75
2023/09/16 00:49:07;;;;;;;1.77;1.67;;;;;;;;;;1037343;28;20033;-74
2023/09/16 00:49:38;;;;;;;3.22;2.00;;;;;;;;;;1042595;28;20370;-74
2023/09/16 00:50:17;;;;;;;2.38;1.30;;;;;;;;;;1039577;28;20021;-74
2023/09/16 00:50:47;;;;;;;0.93;0.93;;;;;;;;;;1037042;28;20025;-74
2023/09/16 00:51:19;;;;;;;3.58;2.15;;;;;;;;;;1039873;28;20040;-74
2023/09/16 00:51:49;;;;;;;8.85;2.83;;;;;;;;;;1040517;28;20122;-75
2023/09/16 00:52:20;;;;;;;5.53;3.53;;;;;;;;;;1041325;28;20021;-74
2023/09/16 00:52:53;;;;;;;15.77;3.28;;;;;;;;;;1039737;28;20072;-74
2023/09/16 00:53:25;;;;;;;6.78;3.17;;;;;;;;;;1037496;28;20040;-74
2023/09/16 00:53:56;;;;;;;7.63;2.50;;;;;;;;;;1037018;28;20022;-74
2023/09/16 00:54:27;;;;;;;12.18;5.68;;;;;;;;;;1037451;28;20052;-74
2023/09/16 00:54:57;;;;;;;8.50;3.33;;;;;;;;;;1036991;28;20116;-74
2023/09/16 00:55:28;;;;;;;20.27;4.00;;;;;;;;;;1037896;28;20075;-74
2023/09/16 00:55:59;;;;;;;6.88;3.97;;;;;;;;;;1037751;28;20026;-74
2023/09/16 00:56:29;;;;;;;9.80;5.30;;;;;;;;;;1037427;28;20025;-74
2023/09/16 00:57:01;;;;;;;7.32;3.22;;;;;;;;;;1037540;28;20029;-74
2023/09/16 00:57:32;;;;;;;1.77;1.67;;;;;;;;;;1037671;28;20458;-74
2023/09/16 00:58:03;;;;;;;7.05;2.92;;;;;;;;;;1041104;28;20028;-74
2023/09/16 00:58:34;;;;;;;2.80;1.35;;;;;;;;;;1041401;28;20480;-75
2023/09/16 00:59:05;;;;;;;11.95;3.22;;;;;;;;;;1041153;28;20025;-75
2023/09/16 00:59:35;;;;;;;9.02;3.60;;;;;;;;;;1040864;28;20021;-74
2023/09/16 01:00:08;;;;;;;12.55;3.13;;;;;;;;;;1036416;28;20111;-74
2023/09/16 01:00:38;;;;;;;3.05;2.20;;;;;;;;;;1036684;28;20036;-74
2023/09/16 01:01:12;;;;;;;8.13;2.95;;;;;;;;;;1038062;28;20402;-75
2023/09/16 01:01:44;;;;;;;4.75;2.05;;;;;;;;;;1036854;28;20033;-74
2023/09/16 01:02:15;;;;;;;5.65;2.45;;;;;;;;;;1036117;28;20028;-75
2023/09/16 01:02:46;;;;;;;5.57;3.20;;;;;;;;;;1037601;28;20037;-75
2023/09/16 01:03:17;;;;;;;4.35;1.92;;;;;;;;;;1037567;28;20029;-75
2023/09/16 01:03:48;;;;;;;0.35;0.35;;;;;;;;;;1033839;28;20386;-74
2023/09/16 01:04:21;;;;;;;13.90;2.50;;;;;;;;;;1032671;28;20066;-76
2023/09/16 01:04:53;;;;;;;3.63;3.03;;;;;;;;;;1035427;28;20521;-75
2023/09/16 01:05:24;;;;;;;14.80;3.13;;;;;;;;;;1036038;28;20505;-74
2023/09/16 01:05:55;;;;;;;16.45;2.97;;;;;;;;;;1037552;28;20021;-74
2023/09/16 01:06:30;;;;;;;7.32;2.65;;;;;;;;;;1037683;28;20029;-76
2023/09/16 01:07:02;;;;;;;5.65;1.40;;;;;;;;;;1035420;28;20517;-75
2023/09/16 01:07:33;;;;;;;2.75;2.33;;;;;;;;;;1033401;28;20033;-74
2023/09/16 01:08:03;;;;;;;10.07;3.28;;;;;;;;;;1034537;28;20128;-75
2023/09/16 01:08:37;;;;;;;13.20;3.75;;;;;;;;;;1038292;28;21139;-75
2023/09/16 01:09:08;;;;;;;3.78;2.67;;;;;;;;;;1035246;28;20025;-74
2023/09/16 01:09:39;;;;;;;2.38;1.70;;;;;;;;;;1035083;28;20049;-74
2023/09/16 01:10:10;;;;;;;7.13;1.77;;;;;;;;;;1035708;28;20025;-75
2023/09/16 01:10:44;;;;;;;4.50;2.13;;;;;;;;;;1031267;28;20386;-77
2023/09/16 01:11:14;;;;;;;3.78;1.80;;;;;;;;;;1032670;28;20509;-74
2023/09/16 01:11:45;;;;;;;7.60;3.40;;;;;;;;;;1036870;28;20025;-75
2023/09/16 01:12:15;;;;;;;7.13;1.67;;;;;;;;;;1038356;28;20433;-74
2023/09/16 01:12:48;;;;;;;3.35;1.88;;;;;;;;;;1039935;28;20022;-75
2023/09/16 01:13:18;;;;;;;2.65;2.45;;;;;;;;;;1040541;28;20036;-75
2023/09/16 01:13:50;;;;;;;3.72;1.85;;;;;;;;;;1040630;28;20031;-75
2023/09/16 01:14:20;;;;;;;1.98;1.42;;;;;;;;;;1037237;28;20414;-74
2023/09/16 01:14:51;;;;;;;8.27;1.33;;;;;;;;;;1037664;28;20025;-75
2023/09/16 01:15:24;;;;;;;1.52;1.33;;;;;;;;;;1037703;28;20017;-75
2023/09/16 01:16:11;;;;;;;3.40;1.42;;;;;;;;;;1035651;28;20045;-74
2023/09/16 01:17:01;;;;;;;1.40;1.25;;;;;;;;;;1039807;28;20667;-74
2023/09/16 01:17:52;;;;;;;7.85;3.33;;;;;;;;;;1036370;28;20103;-74
2023/09/16 01:18:34;;;;;;;1.80;1.70;;;;;;;;;;1034814;28;20485;-74
2023/09/16 01:19:20;;;;;;;3.50;1.77;;;;;;;;;;1038795;28;20066;-75
2023/09/16 01:19:57;;;;;;;2.78;2.55;;;;;;;;;;1041605;28;20071;-75
2023/09/16 01:20:28;;;;;;;2.00;1.65;;;;;;;;;;1041026;28;20393;-74
2023/09/16 01:20:59;;;;;;;2.92;1.17;;;;;;;;;;1036510;28;20016;-75
2023/09/16 01:21:29;;;;;;;3.47;2.33;;;;;;;;;;1037049;28;20033;-75
2023/09/16 01:22:01;;;;;;;2.30;0.75;;;;;;;;;;1036409;28;20048;-74
2023/09/16 01:22:31;;;;;;;1.30;1.20;;;;;;;;;;1029741;28;20031;-74
2023/09/16 01:23:02;;;;;;;4.45;1.30;;;;;;;;;;1034023;28;20025;-75
2023/09/16 01:23:32;;;;;;;16.50;2.22;;;;;;;;;;1036749;28;20541;-75
2023/09/16 01:24:19;;;;;;;0.60;0.60;;;;;;;;;;1035155;28;20029;-75
2023/09/16 01:24:53;;;;;;;2.28;1.40;;;;;;;;;;1036533;28;20505;-75
2023/09/16 01:25:28;;;;;;;5.78;4.03;;;;;;;;;;1034120;28;20029;-75
2023/09/16 01:25:58;;;;;;;4.28;1.92;;;;;;;;;;1035198;28;20029;-75
2023/09/16 01:26:29;;;;;;;2.72;2.45;;;;;;;;;;1036492;28;20501;-74
2023/09/16 01:26:59;;;;;;;6.25;2.13;;;;;;;;;;1037007;28;20053;-75
2023/09/16 01:27:30;;;;;;;1.45;1.33;;;;;;;;;;1034981;28;20052;-74
2023/09/16 01:28:00;;;;;;;4.95;1.75;;;;;;;;;;1040913;28;20029;-74
2023/09/16 01:28:31;;;;;;;0.50;0.50;;;;;;;;;;1039709;28;20032;-74
2023/09/16 01:29:02;;;;;;;1.17;1.08;;;;;;;;;;1034977;28;20103;-76
2023/09/16 01:29:32;;;;;;;1.33;1.13;;;;;;;;;;1033612;28;20758;-74
2023/09/16 01:30:05;;;;;;;2.10;1.75;;;;;;;;;;1036553;28;20035;-74
2023/09/16 01:30:36;;;;;;;2.38;2.08;;;;;;;;;;1037033;28;20479;-74
2023/09/16 01:31:07;;;;;;;0.43;0.43;;;;;;;;;;1033745;28;20014;-74
2023/09/16 01:31:38;;;;;;;3.97;1.23;;;;;;;;;;1035663;28;20083;-74
2023/09/16 01:32:10;;;;;;;1.20;1.10;;;;;;;;;;1033133;28;20030;-74
2023/09/16 01:32:54;;;;;;;4.03;2.70;;;;;;;;;;1034527;28;20053;-75
2023/09/16 01:33:34;;;;;;;1.42;1.33;;;;;;;;;;1037286;28;20132;-74
2023/09/16 01:34:08;;;;;;;1.95;1.38;;;;;;;;;;1034500;28;20040;-75
2023/09/16 01:34:47;;;;;;;0.90;0.85;;;;;;;;;;1036220;28;20026;-75
2023/09/16 01:35:21;;;;;;;1.65;1.55;;;;;;;;;;1037279;28;20041;-75
2023/09/16 01:35:54;;;;;;;2.60;1.40;;;;;;;;;;1039441;28;20022;-76
2023/09/16 01:36:27;;;;;;;3.72;1.00;;;;;;;;;;1040000;28;20033;-75
2023/09/16 01:36:59;;;;;;;0.70;0.70;;;;;;;;;;1041908;28;20516;-76
2023/09/16 01:37:30;;;;;;;5.13;2.00;;;;;;;;;;1037014;28;20047;-74
2023/09/16 01:38:00;;;;;;;0.40;0.40;;;;;;;;;;1035804;28;20024;-75
2023/09/16 01:38:32;;;;;;;5.68;5.13;;;;;;;;;;1037080;28;20120;-74
2023/09/16 01:39:05;;;;;;;8.63;2.38;;;;;;;;;;1038045;28;20029;-76
2023/09/16 01:39:36;;;;;;;1.42;1.33;;;;;;;;;;1036441;28;20021;-74
2023/09/16 01:40:10;;;;;;;2.92;2.08;;;;;;;;;;1037262;28;20040;-74
2023/09/16 01:40:43;;;;;;;1.08;0.90;;;;;;;;;;1032757;28;20029;-75
2023/09/16 01:41:16;;;;;;;0.75;0.75;;;;;;;;;;1035167;28;20028;-75
2023/09/16 01:41:48;;;;;;;1.60;1.08;;;;;;;;;;1033119;28;20032;-76
2023/09/16 01:42:18;;;;;;;5.70;1.10;;;;;;;;;;1034213;28;20087;-76
2023/09/16 01:42:49;;;;;;;2.47;2.28;;;;;;;;;;1032565;28;20637;-77
2023/09/16 01:43:20;;;;;;;11.35;3.17;;;;;;;;;;1034122;28;20072;-76
2023/09/16 01:43:51;;;;;;;1.33;1.25;;;;;;;;;;1034686;28;20017;-76
2023/09/16 01:44:21;;;;;;;2.85;2.22;;;;;;;;;;1036281;28;20021;-75
2023/09/16 01:44:53;;;;;;;5.22;1.55;;;;;;;;;;1038404;28;20064;-76
2023/09/16 01:45:38;;;;;;;6.43;3.22;;;;;;;;;;1038417;28;20084;-76
2023/09/16 01:46:12;;;;;;;0.68;0.68;;;;;;;;;;1037059;28;20029;-76
2023/09/16 01:46:42;;;;;;;3.20;1.67;;;;;;;;;;1035687;28;20127;-75
2023/09/16 01:47:12;;;;;;;1.15;0.70;;;;;;;;;;1036190;28;20474;-75
2023/09/16 01:47:44;;;;;;;2.65;1.92;;;;;;;;;;1036844;28;20454;-75
2023/09/16 01:48:16;;;;;;;8.63;2.30;;;;;;;;;;1035357;28;20080;-76
2023/09/16 01:48:46;;;;;;;2.28;1.63;;;;;;;;;;1036560;28;20484;-75
2023/09/16 01:49:17;;;;;;;1.35;1.25;;;;;;;;;;1038440;28;20029;-75
2023/09/16 01:49:47;;;;;;;2.75;1.65;;;;;;;;;;1037900;28;20029;-76
2023/09/16 01:50:18;;;;;;;8.25;4.25;;;;;;;;;;1036929;28;20518;-76
2023/09/16 01:50:49;;;;;;;2.90;2.03;;;;;;;;;;1034595;28;20026;-75
2023/09/16 01:51:19;;;;;;;2.05;1.05;;;;;;;;;;1034000;28;20088;-75
2023/09/16 01:51:50;;;;;;;6.22;0.88;;;;;;;;;;1034110;28;20491;-75
2023/09/16 01:52:20;;;;;;;0.45;0.45;;;;;;;;;;1037738;28;20033;-76
2023/09/16 01:52:51;;;;;;;4.82;2.28;;;;;;;;;;1040210;28;20417;-76
2023/09/16 01:53:21;;;;;;;3.85;2.45;;;;;;;;;;1036704;28;20560;-76
2023/09/16 01:53:52;;;;;;;5.05;4.00;;;;;;;;;;1035453;28;20071;-75
2023/09/16 01:54:22;;;;;;;2.05;1.48;;;;;;;;;;1036443;28;20463;-75
2023/09/16 01:54:53;;;;;;;5.85;4.00;;;;;;;;;;1036309;28;20032;-75
2023/09/16 01:55:24;;;;;;;0.22;0.22;;;;;;;;;;1040869;28;20040;-75
2023/09/16 01:55:54;;;;;;;3.40;2.17;;;;;;;;;;1039949;28;20062;-75
2023/09/16 01:56:25;;;;;;;1.35;1.25;;;;;;;;;;1041913;28;20345;-75
2023/09/16 01:56:56;;;;;;;1.85;1.30;;;;;;;;;;1041934;28;20590;-75
2023/09/16 01:57:26;;;;;;;0.10;0.10;;;;;;;;;;1037084;28;20045;-75
2023/09/16 01:57:57;;;;;;;1.67;1.58;;;;;;;;;;1039042;28;20040;-75
2023/09/16 01:58:28;;;;;;;0.63;0.63;;;;;;;;;;1039890;28;20048;-75
2023/09/16 01:58:58;;;;;;;0.80;0.60;;;;;;;;;;1040437;28;20021;-75
2023/09/16 01:59:29;;;;;;;2.20;2.03;;;;;;;;;;1037109;28;20029;-75
2023/09/16 01:59:59;;;;;;;0.73;0.73;;;;;;;;;;1035273;28;20131;-75
2023/09/16 02:00:30;;;;;;;0.80;0.80;;;;;;;;;;1036845;28;20026;-75
2023/09/16 02:01:08;;;;;;;4.63;2.53;;;;;;;;;;1037844;28;20025;-75
2023/09/16 02:01:38;;;;;;;3.10;1.98;;;;;;;;;;1036065;28;20029;-75
2023/09/16 02:02:08;;;;;;;1.55;1.13;;;;;;;;;;1035709;28;20029;-75
2023/09/16 02:02:39;;;;;;;0.28;0.28;;;;;;;;;;1038743;28;20025;-74
2023/09/16 02:03:10;;;;;;;9.30;0.95;;;;;;;;;;1038061;28;20069;-75
2023/09/16 02:03:40;;;;;;;2.50;2.40;;;;;;;;;;1034913;28;20040;-75
2023/09/16 02:04:11;;;;;;;6.78;0.77;;;;;;;;;;1037138;28;20025;-74
2023/09/16 02:04:44;;;;;;;0.65;0.65;;;;;;;;;;1035601;28;20547;-74
2023/09/16 02:05:15;;;;;;;1.02;1.02;;;;;;;;;;1037823;28;20398;-74
2023/09/16 02:05:49;;;;;;;0.10;0.10;;;;;;;;;;1039126;28;20021;-75
2023/09/16 02:06:19;;;;;;;0.50;0.50;;;;;;;;;;1040656;28;20024;-74
2023/09/16 02:06:50;;;;;;;1.45;1.35;;;;;;;;;;1037038;28;20099;-74
2023/09/16 02:07:20;;;;;;;0.20;0.20;;;;;;;;;;1036751;28;20907;-75
2023/09/16 02:07:50;;;;;;;5.28;2.22;;;;;;;;;;1036280;28;20039;-75
2023/09/16 02:08:23;;;;;;;9.05;0.85;;;;;;;;;;1033399;28;20382;-75
2023/09/16 02:08:54;;;;;;;1.33;0.75;;;;;;;;;;1038417;28;20527;-75
2023/09/16 02:09:25;;;;;;;1.05;0.65;;;;;;;;;;1038242;28;20132;-75
2023/09/16 02:09:55;;;;;;;2.28;1.02;;;;;;;;;;1035702;28;20032;-75
2023/09/16 02:10:28;;;;;;;2.45;1.35;;;;;;;;;;1037176;28;20022;-75
2023/09/16 02:11:00;;;;;;;6.97;2.00;;;;;;;;;;1037506;28;20080;-75
2023/09/16 02:11:33;;;;;;;4.95;2.20;;;;;;;;;;1037338;28;21904;-75
2023/09/16 02:12:04;;;;;;;1.80;1.70;;;;;;;;;;1036834;28;20026;-75
2023/09/16 02:12:34;;;;;;;3.13;1.00;;;;;;;;;;1034605;28;20030;-75
2023/09/16 02:13:05;;;;;;;3.33;1.60;;;;;;;;;;1029515;28;20038;-75
2023/09/16 02:13:35;;;;;;;7.57;2.55;;;;;;;;;;1030364;28;20033;-75
2023/09/16 02:14:16;;;;;;;4.57;1.67;;;;;;;;;;1033359;28;20038;-75
2023/09/16 02:14:51;;;;;;;3.30;1.98;;;;;;;;;;1037199;28;20031;-75
2023/09/16 02:15:21;;;;;;;6.78;4.32;;;;;;;;;;1036134;28;20516;-75
2023/09/16 02:15:52;;;;;;;2.03;1.45;;;;;;;;;;1038132;28;20033;-75
2023/09/16 02:16:22;;;;;;;2.30;2.10;;;;;;;;;;1037385;28;20060;-76
2023/09/16 02:16:53;;;;;;;3.10;1.98;;;;;;;;;;1036662;28;20045;-75
2023/09/16 02:17:23;;;;;;;1.08;0.90;;;;;;;;;;1039950;28;20025;-76
2023/09/16 02:17:54;;;;;;;1.00;0.93;;;;;;;;;;1036829;28;20086;-75
2023/09/16 02:18:24;;;;;;;0.90;0.85;;;;;;;;;;1037507;28;20029;-75
2023/09/16 02:18:55;;;;;;;4.00;2.53;;;;;;;;;;1037111;28;20499;-74
2023/09/16 02:19:25;;;;;;;3.97;0.95;;;;;;;;;;1036582;28;20013;-75
2023/09/16 02:19:56;;;;;;;2.20;2.05;;;;;;;;;;1037758;28;20107;-75
2023/09/16 02:20:26;;;;;;;1.67;1.08;;;;;;;;;;1037947;28;20146;-75
2023/09/16 02:20:57;;;;;;;1.45;1.35;;;;;;;;;;1036942;28;20036;-75
2023/09/16 02:21:27;;;;;;;2.97;2.28;;;;;;;;;;1037675;28;20025;-75
2023/09/16 02:21:57;;;;;;;7.25;2.88;;;;;;;;;;1032386;28;20026;-74
2023/09/16 02:22:28;;;;;;;0.38;0.20;;;;;;;;;;1038444;28;20413;-75
2023/09/16 02:22:58;;;;;;;0.73;0.55;;;;;;;;;;1034392;28;20045;-75
2023/09/16 02:23:30;;;;;;;0.43;0.43;;;;;;;;;;1035430;28;20041;-74
2023/09/16 02:24:01;;;;;;;2.67;2.47;;;;;;;;;;1036176;28;20116;-75
2023/09/16 02:24:31;;;;;;;2.20;1.60;;;;;;;;;;1033318;28;20034;-74
2023/09/16 02:25:02;;;;;;;3.00;2.10;;;;;;;;;;1030568;28;20030;-75
2023/09/16 02:25:33;;;;;;;3.35;1.80;;;;;;;;;;1030494;28;20552;-75
2023/09/16 02:26:03;;;;;;;0.45;0.45;;;;;;;;;;1036321;28;20080;-75
2023/09/16 02:26:34;;;;;;;4.35;1.73;;;;;;;;;;1036896;28;20013;-75
2023/09/16 02:27:04;;;;;;;0.77;0.70;;;;;;;;;;1036379;28;20167;-74
2023/09/16 02:27:35;;;;;;;1.65;1.55;;;;;;;;;;1036088;28;20067;-75
2023/09/16 02:28:05;;;;;;;1.85;1.75;;;;;;;;;;1037179;28;20040;-75
2023/09/16 02:28:36;;;;;;;1.55;1.23;;;;;;;;;;1037118;28;20040;-75
2023/09/16 02:29:07;;;;;;;1.02;0.98;;;;;;;;;;1037303;28;20175;-75
2023/09/16 02:29:37;;;;;;;1.05;1.02;;;;;;;;;;1036270;28;20029;-75
2023/09/16 02:30:08;;;;;;;1.02;0.60;;;;;;;;;;1036588;28;20030;-75
2023/09/16 02:30:39;;;;;;;2.08;1.58;;;;;;;;;;1036586;28;20029;-75
2023/09/16 02:31:09;;;;;;;2.75;1.85;;;;;;;;;;1039387;28;20540;-74
2023/09/16 02:31:40;;;;;;;8.27;0.68;;;;;;;;;;1040163;28;20732;-74
2023/09/16 02:32:22;;;;;;;2.40;1.15;;;;;;;;;;1033932;28;20038;-75
2023/09/16 02:32:52;;;;;;;1.10;1.00;;;;;;;;;;1032606;28;20030;-76
2023/09/16 02:33:23;;;;;;;1.30;1.17;;;;;;;;;;1035902;28;20485;-75
2023/09/16 02:33:58;;;;;;;1.17;0.60;;;;;;;;;;1036998;28;20485;-76
2023/09/16 02:34:31;;;;;;;1.27;1.17;;;;;;;;;;1035621;28;20026;-74
2023/09/16 02:35:02;;;;;;;2.53;2.33;;;;;;;;;;1038434;28;20041;-76
2023/09/16 02:35:33;;;;;;;2.17;1.98;;;;;;;;;;1038366;28;20021;-75
2023/09/16 02:36:04;;;;;;;1.20;0.82;;;;;;;;;;1036451;28;20124;-75
2023/09/16 02:36:37;;;;;;;3.78;2.22;;;;;;;;;;1038136;28;20033;-75
2023/09/16 02:37:08;;;;;;;1.15;1.08;;;;;;;;;;1036475;28;20579;-75
2023/09/16 02:37:38;;;;;;;3.95;2.00;;;;;;;;;;1036520;28;20028;-74
2023/09/16 02:38:10;;;;;;;1.27;0.65;;;;;;;;;;1039423;28;20030;-74
2023/09/16 02:38:41;;;;;;;1.45;1.35;;;;;;;;;;1035288;28;20046;-74
2023/09/16 02:39:12;;;;;;;0.65;0.65;;;;;;;;;;1034513;28;20025;-74
2023/09/16 02:39:43;;;;;;;2.72;1.92;;;;;;;;;;1034834;28;20030;-76
2023/09/16 02:40:15;;;;;;;7.07;1.65;;;;;;;;;;1032442;28;20034;-75
2023/09/16 02:40:46;;;;;;;3.65;2.38;;;;;;;;;;1032875;28;20026;-75
2023/09/16 02:41:18;;;;;;;2.22;1.33;;;;;;;;;;1032659;28;20026;-75
2023/09/16 02:41:49;;;;;;;0.60;0.60;;;;;;;;;;1026115;28;20026;-74
2023/09/16 02:42:19;;;;;;;3.30;1.52;;;;;;;;;;1030222;28;20030;-74
2023/09/16 02:42:50;;;;;;;1.17;1.02;;;;;;;;;;1036635;28;20025;-74
2023/09/16 02:43:20;;;;;;;4.13;2.40;;;;;;;;;;1038901;28;20126;-75
2023/09/16 02:43:52;;;;;;;0.95;0.95;;;;;;;;;;1033613;28;20026;-73
2023/09/16 02:44:23;;;;;;;2.00;1.17;;;;;;;;;;1032879;28;20036;-75
2023/09/16 02:44:54;;;;;;;1.88;1.45;;;;;;;;;;1035990;28;20460;-74
2023/09/16 02:45:25;;;;;;;4.50;0.93;;;;;;;;;;1037998;28;20034;-74
2023/09/16 02:45:56;;;;;;;8.27;3.22;;;;;;;;;;1039656;28;20060;-74
2023/09/16 02:46:26;;;;;;;1.70;1.58;;;;;;;;;;1034187;28;20117;-74
2023/09/16 02:46:57;;;;;;;0.40;0.40;;;;;;;;;;1034051;28;20060;-74
2023/09/16 02:47:27;;;;;;;2.60;1.58;;;;;;;;;;1035650;28;20033;-75
2023/09/16 02:47:58;;;;;;;5.18;2.28;;;;;;;;;;1037356;28;20045;-74
2023/09/16 02:48:28;;;;;;;9.18;3.42;;;;;;;;;;1032720;28;20492;-74
2023/09/16 02:49:01;;;;;;;0.68;0.68;;;;;;;;;;1037340;28;20038;-75
2023/09/16 02:49:33;;;;;;;8.77;2.72;;;;;;;;;;1037580;28;20033;-74
2023/09/16 02:50:03;;;;;;;2.63;1.17;;;;;;;;;;1037089;28;20025;-73
2023/09/16 02:50:34;;;;;;;0.63;0.63;;;;;;;;;;1036605;28;20029;-73
2023/09/16 02:51:09;;;;;;;2.53;1.63;;;;;;;;;;1037784;28;20084;-75
2023/09/16 02:51:39;;;;;;;2.35;1.05;;;;;;;;;;1036522;28;20021;-74
2023/09/16 02:52:10;;;;;;;0.20;0.20;;;;;;;;;;1033956;28;20022;-75
2023/09/16 02:52:40;;;;;;;1.73;1.63;;;;;;;;;;1033057;28;20206;-75
2023/09/16 02:53:11;;;;;;;2.83;1.67;;;;;;;;;;1036229;28;20589;-75
2023/09/16 02:53:42;;;;;;;6.18;0.95;;;;;;;;;;1035672;28;20116;-74
2023/09/16 02:54:13;;;;;;;2.45;1.70;;;;;;;;;;1032199;28;20092;-74
2023/09/16 02:54:43;;;;;;;3.50;2.78;;;;;;;;;;1035598;28;20029;-74
2023/09/16 02:55:16;;;;;;;2.22;1.73;;;;;;;;;;1036153;28;20045;-75
2023/09/16 02:55:47;;;;;;;1.10;0.80;;;;;;;;;;1033383;28;20359;-75
2023/09/16 02:56:18;;;;;;;3.88;1.40;;;;;;;;;;1031452;28;20022;-74
2023/09/16 02:56:50;;;;;;;1.80;1.10;;;;;;;;;;1031540;28;20521;-75
2023/09/16 02:57:20;;;;;;;3.05;2.20;;;;;;;;;;1034181;28;20025;-74
2023/09/16 02:57:51;;;;;;;17.17;3.60;;;;;;;;;;1033474;28;20030;-75
2023/09/16 02:58:25;;;;;;;3.72;1.95;;;;;;;;;;1033807;28;20026;-74
2023/09/16 02:58:55;;;;;;;3.00;1.23;;;;;;;;;;1032361;28;20481;-76
2023/09/16 02:59:27;;;;;;;1.20;0.98;;;;;;;;;;1029163;28;20026;-75
2023/09/16 02:59:59;;;;;;;1.27;1.20;;;;;;;;;;1028125;28;20062;-75
2023/09/16 03:00:32;;;;;;;3.03;1.88;;;;;;;;;;1033960;28;20064;-74
2023/09/16 03:01:12;;;;;;;10.73;1.48;;;;;;;;;;1036139;28;20021;-75
2023/09/16 03:01:43;;;;;;;0.75;0.65;;;;;;;;;;1034870;28;20374;-75
2023/09/16 03:02:15;;;;;;;9.10;2.30;;;;;;;;;;1035381;28;20466;-77
2023/09/16 03:02:49;;;;;;;2.55;1.60;;;;;;;;;;1031383;28;20028;-75
2023/09/16 03:03:20;;;;;;;7.63;2.25;;;;;;;;;;1032566;28;20037;-75
2023/09/16 03:03:51;;;;;;;7.30;2.10;;;;;;;;;;1032533;28;20053;-75
2023/09/16 03:04:22;;;;;;;2.53;1.55;;;;;;;;;;1036977;28;20039;-74
2023/09/16 03:04:52;;;;;;;2.78;2.08;;;;;;;;;;1040303;28;20546;-74
2023/09/16 03:05:23;;;;;;;3.42;2.00;;;;;;;;;;1037331;28;20036;-75
2023/09/16 03:05:59;;;;;;;1.23;1.00;;;;;;;;;;1036634;28;20029;-74
2023/09/16 03:06:33;;;;;;;0.80;0.68;;;;;;;;;;1038708;28;20081;-74
2023/09/16 03:07:03;;;;;;;2.03;1.85;;;;;;;;;;1032090;28;20022;-75
2023/09/16 03:07:35;;;;;;;1.70;1.10;;;;;;;;;;1033100;28;20022;-75
2023/09/16 03:08:07;;;;;;;7.38;1.90;;;;;;;;;;1030948;28;20030;-75
2023/09/16 03:08:38;;;;;;;2.05;1.85;;;;;;;;;;1034467;28;20033;-75
2023/09/16 03:09:08;;;;;;;1.00;0.88;;;;;;;;;;1033256;28;20076;-74
2023/09/16 03:09:42;;;;;;;1.50;1.40;;;;;;;;;;1034209;28;20030;-76